sensor_id;sensor_type;location;lat;lon;timestamp;P1;durP1;ratioP1;P2;durP2;ratioP2
13419;SDS011;6781;58.440;15.470;2023-08-24T00:01:53;5.75;;;2.47;;
13419;SDS011;6781;58.440;15.470;2023-08-24T00:04:20;5.15;;;2.40;;
13419;SDS011;6781;58.440;15.470;2023-08-24T00:06:48;3.50;;;2.00;;
13419;SDS011;6781;58.440;15.470;2023-08-24T00:09:14;2.58;;;2.28;;
13419;SDS011;6781;58.440;15.470;2023-08-24T00:11:43;2.30;;;2.10;;
13419;SDS011;6781;58.440;15.470;2023-08-24T00:14:10;3.00;;;2.25;;
13419;SDS011;6781;58.440;15.470;2023-08-24T00:16:37;5.70;;;2.35;;
13419;SDS011;6781;58.440;15.470;2023-08-24T00:19:04;2.80;;;2.40;;
13419;SDS011;6781;58.440;15.470;2023-08-24T00:21:32;3.70;;;2.15;;
13419;SDS011;6781;58.440;15.470;2023-08-24T00:23:59;3.78;;;2.10;;
13419;SDS011;6781;58.440;15.470;2023-08-24T00:26:26;3.83;;;2.65;;
13419;SDS011;6781;58.440;15.470;2023-08-24T00:28:54;3.40;;;2.40;;
13419;SDS011;6781;58.440;15.470;2023-08-24T00:31:21;2.55;;;2.00;;
13419;SDS011;6781;58.440;15.470;2023-08-24T00:33:48;5.40;;;2.83;;
13419;SDS011;6781;58.440;15.470;2023-08-24T00:36:15;4.43;;;2.30;;
13419;SDS011;6781;58.440;15.470;2023-08-24T00:38:43;3.15;;;2.22;;
13419;SDS011;6781;58.440;15.470;2023-08-24T00:41:10;2.45;;;2.30;;
13419;SDS011;6781;58.440;15.470;2023-08-24T00:43:39;4.95;;;2.40;;
13419;SDS011;6781;58.440;15.470;2023-08-24T00:46:07;3.78;;;2.22;;
13419;SDS011;6781;58.440;15.470;2023-08-24T00:48:34;4.38;;;2.25;;
13419;SDS011;6781;58.440;15.470;2023-08-24T00:51:02;4.10;;;2.58;;
13419;SDS011;6781;58.440;15.470;2023-08-24T00:53:30;4.13;;;2.20;;
13419;SDS011;6781;58.440;15.470;2023-08-24T00:55:57;4.30;;;2.33;;
13419;SDS011;6781;58.440;15.470;2023-08-24T00:58:25;6.25;;;2.40;;
13419;SDS011;6781;58.440;15.470;2023-08-24T01:00:53;6.07;;;2.45;;
13419;SDS011;6781;58.440;15.470;2023-08-24T01:03:22;3.55;;;2.30;;
13419;SDS011;6781;58.440;15.470;2023-08-24T01:05:50;7.07;;;2.28;;
13419;SDS011;6781;58.440;15.470;2023-08-24T01:08:18;6.65;;;2.28;;
13419;SDS011;6781;58.440;15.470;2023-08-24T01:10:47;3.45;;;2.38;;
13419;SDS011;6781;58.440;15.470;2023-08-24T01:13:20;3.58;;;2.13;;
13419;SDS011;6781;58.440;15.470;2023-08-24T01:15:55;2.45;;;2.08;;
13419;SDS011;6781;58.440;15.470;2023-08-24T01:18:28;2.47;;;1.95;;
13419;SDS011;6781;58.440;15.470;2023-08-24T01:20:56;4.85;;;2.13;;
13419;SDS011;6781;58.440;15.470;2023-08-24T01:23:27;4.95;;;2.25;;
13419;SDS011;6781;58.440;15.470;2023-08-24T01:26:06;3.65;;;2.13;;
13419;SDS011;6781;58.440;15.470;2023-08-24T01:28:36;4.03;;;1.83;;
13419;SDS011;6781;58.440;15.470;2023-08-24T01:31:03;2.88;;;1.92;;
13419;SDS011;6781;58.440;15.470;2023-08-24T01:33:31;2.83;;;1.65;;
13419;SDS011;6781;58.440;15.470;2023-08-24T01:35:58;2.75;;;1.88;;
13419;SDS011;6781;58.440;15.470;2023-08-24T01:38:25;3.60;;;1.92;;
13419;SDS011;6781;58.440;15.470;2023-08-24T01:40:53;4.45;;;1.95;;
13419;SDS011;6781;58.440;15.470;2023-08-24T01:43:28;1.85;;;1.65;;
13419;SDS011;6781;58.440;15.470;2023-08-24T01:45:58;4.95;;;1.90;;
13419;SDS011;6781;58.440;15.470;2023-08-24T01:48:27;2.63;;;1.80;;
13419;SDS011;6781;58.440;15.470;2023-08-24T01:50:55;3.95;;;1.85;;
13419;SDS011;6781;58.440;15.470;2023-08-24T01:53:23;4.53;;;2.05;;
13419;SDS011;6781;58.440;15.470;2023-08-24T01:55:52;5.55;;;2.17;;
13419;SDS011;6781;58.440;15.470;2023-08-24T01:58:19;3.75;;;2.05;;
13419;SDS011;6781;58.440;15.470;2023-08-24T02:00:48;2.75;;;1.73;;
13419;SDS011;6781;58.440;15.470;2023-08-24T02:05:50;5.25;;;2.17;;
13419;SDS011;6781;58.440;15.470;2023-08-24T02:08:17;2.00;;;1.60;;
13419;SDS011;6781;58.440;15.470;2023-08-24T02:10:44;3.60;;;1.95;;
13419;SDS011;6781;58.440;15.470;2023-08-24T02:13:11;3.92;;;2.00;;
13419;SDS011;6781;58.440;15.470;2023-08-24T02:15:38;5.55;;;1.75;;
13419;SDS011;6781;58.440;15.470;2023-08-24T02:18:07;6.30;;;2.30;;
13419;SDS011;6781;58.440;15.470;2023-08-24T02:20:34;4.13;;;2.03;;
13419;SDS011;6781;58.440;15.470;2023-08-24T02:23:02;2.65;;;1.90;;
13419;SDS011;6781;58.440;15.470;2023-08-24T02:25:29;2.78;;;2.08;;
13419;SDS011;6781;58.440;15.470;2023-08-24T02:27:56;2.28;;;2.00;;
13419;SDS011;6781;58.440;15.470;2023-08-24T02:30:23;4.95;;;1.92;;
13419;SDS011;6781;58.440;15.470;2023-08-24T02:32:50;3.55;;;1.92;;
13419;SDS011;6781;58.440;15.470;2023-08-24T02:35:18;4.00;;;1.70;;
13419;SDS011;6781;58.440;15.470;2023-08-24T02:37:45;4.32;;;2.03;;
13419;SDS011;6781;58.440;15.470;2023-08-24T02:40:14;3.78;;;2.20;;
13419;SDS011;6781;58.440;15.470;2023-08-24T02:42:41;2.40;;;2.20;;
13419;SDS011;6781;58.440;15.470;2023-08-24T02:45:08;3.03;;;1.73;;
13419;SDS011;6781;58.440;15.470;2023-08-24T02:47:35;4.57;;;1.90;;
13419;SDS011;6781;58.440;15.470;2023-08-24T02:50:04;3.50;;;2.38;;
13419;SDS011;6781;58.440;15.470;2023-08-24T02:52:34;1.98;;;1.75;;
13419;SDS011;6781;58.440;15.470;2023-08-24T02:55:01;3.20;;;1.95;;
13419;SDS011;6781;58.440;15.470;2023-08-24T02:57:29;3.97;;;1.95;;
13419;SDS011;6781;58.440;15.470;2023-08-24T02:59:56;4.30;;;1.98;;
13419;SDS011;6781;58.440;15.470;2023-08-24T03:02:23;3.42;;;1.80;;
13419;SDS011;6781;58.440;15.470;2023-08-24T03:04:50;3.03;;;1.80;;
13419;SDS011;6781;58.440;15.470;2023-08-24T03:07:17;4.10;;;2.00;;
13419;SDS011;6781;58.440;15.470;2023-08-24T03:09:46;2.70;;;2.00;;
13419;SDS011;6781;58.440;15.470;2023-08-24T03:12:13;3.55;;;2.08;;
13419;SDS011;6781;58.440;15.470;2023-08-24T03:14:39;2.15;;;1.92;;
13419;SDS011;6781;58.440;15.470;2023-08-24T03:17:06;3.83;;;1.90;;
13419;SDS011;6781;58.440;15.470;2023-08-24T03:19:34;2.55;;;1.80;;
13419;SDS011;6781;58.440;15.470;2023-08-24T03:22:00;3.35;;;1.88;;
13419;SDS011;6781;58.440;15.470;2023-08-24T03:24:27;2.40;;;1.70;;
13419;SDS011;6781;58.440;15.470;2023-08-24T03:26:56;3.38;;;1.83;;
13419;SDS011;6781;58.440;15.470;2023-08-24T03:29:23;5.03;;;2.00;;
13419;SDS011;6781;58.440;15.470;2023-08-24T03:31:50;3.95;;;1.80;;
13419;SDS011;6781;58.440;15.470;2023-08-24T03:34:17;4.40;;;2.00;;
13419;SDS011;6781;58.440;15.470;2023-08-24T03:36:46;1.77;;;1.67;;
13419;SDS011;6781;58.440;15.470;2023-08-24T03:39:13;3.63;;;1.67;;
13419;SDS011;6781;58.440;15.470;2023-08-24T03:41:40;2.80;;;1.48;;
13419;SDS011;6781;58.440;15.470;2023-08-24T03:44:09;5.32;;;2.33;;
13419;SDS011;6781;58.440;15.470;2023-08-24T03:46:36;3.50;;;2.13;;
13419;SDS011;6781;58.440;15.470;2023-08-24T03:49:03;4.28;;;1.80;;
13419;SDS011;6781;58.440;15.470;2023-08-24T03:51:30;3.70;;;1.88;;
13419;SDS011;6781;58.440;15.470;2023-08-24T03:53:56;4.80;;;2.13;;
13419;SDS011;6781;58.440;15.470;2023-08-24T03:56:23;2.30;;;1.90;;
13419;SDS011;6781;58.440;15.470;2023-08-24T03:58:50;1.88;;;1.52;;
13419;SDS011;6781;58.440;15.470;2023-08-24T04:01:19;2.58;;;1.63;;
13419;SDS011;6781;58.440;15.470;2023-08-24T04:03:46;3.90;;;1.52;;
13419;SDS011;6781;58.440;15.470;2023-08-24T04:06:13;2.55;;;1.70;;
13419;SDS011;6781;58.440;15.470;2023-08-24T04:08:40;6.70;;;2.10;;
13419;SDS011;6781;58.440;15.470;2023-08-24T04:11:07;3.72;;;2.10;;
13419;SDS011;6781;58.440;15.470;2023-08-24T04:13:33;3.33;;;2.07;;
13419;SDS011;6781;58.440;15.470;2023-08-24T04:16:00;2.40;;;1.70;;
13419;SDS011;6781;58.440;15.470;2023-08-24T04:18:30;3.70;;;2.08;;
13419;SDS011;6781;58.440;15.470;2023-08-24T04:20:57;4.63;;;2.17;;
13419;SDS011;6781;58.440;15.470;2023-08-24T04:23:24;3.20;;;1.95;;
13419;SDS011;6781;58.440;15.470;2023-08-24T04:25:52;6.43;;;2.40;;
13419;SDS011;6781;58.440;15.470;2023-08-24T04:28:19;3.28;;;2.40;;
13419;SDS011;6781;58.440;15.470;2023-08-24T04:30:49;3.67;;;2.47;;
13419;SDS011;6781;58.440;15.470;2023-08-24T04:33:17;6.28;;;2.58;;
13419;SDS011;6781;58.440;15.470;2023-08-24T04:35:46;3.95;;;1.50;;
13419;SDS011;6781;58.440;15.470;2023-08-24T04:38:16;1.92;;;1.80;;
13419;SDS011;6781;58.440;15.470;2023-08-24T04:40:48;4.20;;;2.38;;
13419;SDS011;6781;58.440;15.470;2023-08-24T04:43:16;3.78;;;1.90;;
13419;SDS011;6781;58.440;15.470;2023-08-24T04:45:43;3.40;;;1.70;;
13419;SDS011;6781;58.440;15.470;2023-08-24T04:48:12;3.47;;;1.90;;
13419;SDS011;6781;58.440;15.470;2023-08-24T04:50:41;7.43;;;2.15;;
13419;SDS011;6781;58.440;15.470;2023-08-24T04:53:11;3.80;;;2.28;;
13419;SDS011;6781;58.440;15.470;2023-08-24T04:55:39;6.53;;;2.30;;
13419;SDS011;6781;58.440;15.470;2023-08-24T04:58:06;1.85;;;1.73;;
13419;SDS011;6781;58.440;15.470;2023-08-24T05:00:33;2.95;;;1.95;;
13419;SDS011;6781;58.440;15.470;2023-08-24T05:03:01;3.53;;;2.35;;
13419;SDS011;6781;58.440;15.470;2023-08-24T05:05:28;2.72;;;2.10;;
13419;SDS011;6781;58.440;15.470;2023-08-24T05:07:56;2.75;;;2.50;;
13419;SDS011;6781;58.440;15.470;2023-08-24T05:10:29;3.78;;;2.60;;
13419;SDS011;6781;58.440;15.470;2023-08-24T05:13:01;3.60;;;2.08;;
13419;SDS011;6781;58.440;15.470;2023-08-24T05:15:29;4.32;;;2.33;;
13419;SDS011;6781;58.440;15.470;2023-08-24T05:17:56;4.00;;;2.50;;
13419;SDS011;6781;58.440;15.470;2023-08-24T05:20:24;7.53;;;2.70;;
13419;SDS011;6781;58.440;15.470;2023-08-24T05:22:52;6.00;;;2.58;;
13419;SDS011;6781;58.440;15.470;2023-08-24T05:25:20;4.95;;;2.30;;
13419;SDS011;6781;58.440;15.470;2023-08-24T05:27:48;4.05;;;2.65;;
13419;SDS011;6781;58.440;15.470;2023-08-24T05:30:15;3.03;;;2.58;;
13419;SDS011;6781;58.440;15.470;2023-08-24T05:32:42;3.72;;;2.55;;
13419;SDS011;6781;58.440;15.470;2023-08-24T05:35:09;6.63;;;3.40;;
13419;SDS011;6781;58.440;15.470;2023-08-24T05:37:37;5.65;;;2.97;;
13419;SDS011;6781;58.440;15.470;2023-08-24T05:40:05;7.47;;;3.65;;
13419;SDS011;6781;58.440;15.470;2023-08-24T05:42:32;3.00;;;2.70;;
13419;SDS011;6781;58.440;15.470;2023-08-24T05:45:03;6.75;;;4.15;;
13419;SDS011;6781;58.440;15.470;2023-08-24T05:47:30;7.95;;;5.38;;
13419;SDS011;6781;58.440;15.470;2023-08-24T05:49:57;6.80;;;3.70;;
13419;SDS011;6781;58.440;15.470;2023-08-24T05:52:24;6.13;;;3.10;;
13419;SDS011;6781;58.440;15.470;2023-08-24T05:54:52;6.68;;;3.88;;
13419;SDS011;6781;58.440;15.470;2023-08-24T05:57:19;6.75;;;3.22;;
13419;SDS011;6781;58.440;15.470;2023-08-24T05:59:46;6.85;;;2.80;;
13419;SDS011;6781;58.440;15.470;2023-08-24T06:02:15;6.80;;;2.85;;
13419;SDS011;6781;58.440;15.470;2023-08-24T06:04:42;5.47;;;2.30;;
13419;SDS011;6781;58.440;15.470;2023-08-24T06:07:09;3.95;;;2.35;;
13419;SDS011;6781;58.440;15.470;2023-08-24T06:09:35;2.33;;;1.80;;
13419;SDS011;6781;58.440;15.470;2023-08-24T06:12:02;3.25;;;2.20;;
13419;SDS011;6781;58.440;15.470;2023-08-24T06:14:30;6.07;;;1.92;;
13419;SDS011;6781;58.440;15.470;2023-08-24T06:16:57;2.45;;;1.73;;
13419;SDS011;6781;58.440;15.470;2023-08-24T06:19:25;3.85;;;1.38;;
13419;SDS011;6781;58.440;15.470;2023-08-24T06:21:52;2.10;;;1.60;;
13419;SDS011;6781;58.440;15.470;2023-08-24T06:24:19;3.72;;;1.70;;
13419;SDS011;6781;58.440;15.470;2023-08-24T06:26:46;7.07;;;1.83;;
13419;SDS011;6781;58.440;15.470;2023-08-24T06:29:13;7.90;;;1.70;;
13419;SDS011;6781;58.440;15.470;2023-08-24T06:31:40;3.35;;;1.58;;
13419;SDS011;6781;58.440;15.470;2023-08-24T06:34:07;4.50;;;1.58;;
13419;SDS011;6781;58.440;15.470;2023-08-24T06:36:35;4.28;;;1.67;;
13419;SDS011;6781;58.440;15.470;2023-08-24T06:39:02;4.05;;;1.52;;
13419;SDS011;6781;58.440;15.470;2023-08-24T06:41:32;4.95;;;1.92;;
13419;SDS011;6781;58.440;15.470;2023-08-24T06:43:59;5.18;;;1.50;;
13419;SDS011;6781;58.440;15.470;2023-08-24T06:46:26;3.45;;;1.58;;
13419;SDS011;6781;58.440;15.470;2023-08-24T06:48:53;3.95;;;1.38;;
13419;SDS011;6781;58.440;15.470;2023-08-24T06:51:20;4.78;;;2.58;;
13419;SDS011;6781;58.440;15.470;2023-08-24T06:53:48;6.68;;;2.00;;
13419;SDS011;6781;58.440;15.470;2023-08-24T06:56:15;4.85;;;1.95;;
13419;SDS011;6781;58.440;15.470;2023-08-24T06:58:43;8.45;;;2.35;;
13419;SDS011;6781;58.440;15.470;2023-08-24T07:01:10;5.55;;;2.28;;
13419;SDS011;6781;58.440;15.470;2023-08-24T07:03:37;6.03;;;2.50;;
13419;SDS011;6781;58.440;15.470;2023-08-24T07:06:05;4.32;;;2.22;;
13419;SDS011;6781;58.440;15.470;2023-08-24T07:08:32;7.82;;;2.60;;
13419;SDS011;6781;58.440;15.470;2023-08-24T07:11:01;8.65;;;2.50;;
13419;SDS011;6781;58.440;15.470;2023-08-24T07:13:28;5.65;;;2.45;;
13419;SDS011;6781;58.440;15.470;2023-08-24T07:15:55;9.70;;;3.88;;
13419;SDS011;6781;58.440;15.470;2023-08-24T07:18:22;7.28;;;3.28;;
13419;SDS011;6781;58.440;15.470;2023-08-24T07:20:49;8.07;;;3.50;;
13419;SDS011;6781;58.440;15.470;2023-08-24T07:23:16;5.43;;;2.80;;
13419;SDS011;6781;58.440;15.470;2023-08-24T07:25:43;4.22;;;3.00;;
13419;SDS011;6781;58.440;15.470;2023-08-24T07:28:11;6.20;;;2.80;;
13419;SDS011;6781;58.440;15.470;2023-08-24T07:30:38;4.88;;;2.92;;
13419;SDS011;6781;58.440;15.470;2023-08-24T07:33:05;4.70;;;2.85;;
13419;SDS011;6781;58.440;15.470;2023-08-24T07:35:32;8.23;;;3.17;;
13419;SDS011;6781;58.440;15.470;2023-08-24T07:37:59;3.50;;;2.72;;
13419;SDS011;6781;58.440;15.470;2023-08-24T07:40:29;4.47;;;2.95;;
13419;SDS011;6781;58.440;15.470;2023-08-24T07:42:56;6.15;;;2.40;;
13419;SDS011;6781;58.440;15.470;2023-08-24T07:45:24;7.45;;;2.30;;
13419;SDS011;6781;58.440;15.470;2023-08-24T07:47:51;10.07;;;2.60;;
13419;SDS011;6781;58.440;15.470;2023-08-24T07:50:18;6.32;;;2.05;;
13419;SDS011;6781;58.440;15.470;2023-08-24T07:52:47;5.25;;;2.00;;
13419;SDS011;6781;58.440;15.470;2023-08-24T07:55:14;5.88;;;1.52;;
13419;SDS011;6781;58.440;15.470;2023-08-24T07:57:41;5.47;;;1.80;;
13419;SDS011;6781;58.440;15.470;2023-08-24T08:00:08;7.32;;;1.92;;
13419;SDS011;6781;58.440;15.470;2023-08-24T08:02:40;6.07;;;1.70;;
13419;SDS011;6781;58.440;15.470;2023-08-24T08:05:07;6.72;;;1.80;;
13419;SDS011;6781;58.440;15.470;2023-08-24T08:07:35;5.25;;;1.40;;
13419;SDS011;6781;58.440;15.470;2023-08-24T08:10:03;5.20;;;1.70;;
13419;SDS011;6781;58.440;15.470;2023-08-24T08:12:31;7.85;;;1.70;;
13419;SDS011;6781;58.440;15.470;2023-08-24T08:14:58;5.20;;;1.58;;
13419;SDS011;6781;58.440;15.470;2023-08-24T08:17:26;6.68;;;1.45;;
13419;SDS011;6781;58.440;15.470;2023-08-24T08:19:57;4.30;;;1.70;;
13419;SDS011;6781;58.440;15.470;2023-08-24T08:22:24;4.47;;;1.55;;
13419;SDS011;6781;58.440;15.470;2023-08-24T08:24:51;4.13;;;1.38;;
13419;SDS011;6781;58.440;15.470;2023-08-24T08:27:19;3.50;;;1.58;;
13419;SDS011;6781;58.440;15.470;2023-08-24T08:29:46;5.03;;;1.65;;
13419;SDS011;6781;58.440;15.470;2023-08-24T08:32:13;6.80;;;1.52;;
13419;SDS011;6781;58.440;15.470;2023-08-24T08:34:40;3.30;;;1.40;;
13419;SDS011;6781;58.440;15.470;2023-08-24T08:37:09;7.30;;;1.90;;
13419;SDS011;6781;58.440;15.470;2023-08-24T08:39:36;4.97;;;1.38;;
13419;SDS011;6781;58.440;15.470;2023-08-24T08:42:03;5.13;;;1.52;;
13419;SDS011;6781;58.440;15.470;2023-08-24T08:44:30;2.25;;;1.13;;
13419;SDS011;6781;58.440;15.470;2023-08-24T08:46:58;4.25;;;1.25;;
13419;SDS011;6781;58.440;15.470;2023-08-24T08:49:25;4.65;;;1.58;;
13419;SDS011;6781;58.440;15.470;2023-08-24T08:51:52;5.15;;;1.35;;
13419;SDS011;6781;58.440;15.470;2023-08-24T08:54:21;3.13;;;1.40;;
13419;SDS011;6781;58.440;15.470;2023-08-24T08:56:48;3.17;;;1.50;;
13419;SDS011;6781;58.440;15.470;2023-08-24T08:59:16;3.50;;;1.42;;
13419;SDS011;6781;58.440;15.470;2023-08-24T09:01:44;4.88;;;1.48;;
13419;SDS011;6781;58.440;15.470;2023-08-24T09:04:16;6.43;;;1.45;;
13419;SDS011;6781;58.440;15.470;2023-08-24T09:06:43;4.75;;;1.75;;
13419;SDS011;6781;58.440;15.470;2023-08-24T09:09:10;2.90;;;1.27;;
13419;SDS011;6781;58.440;15.470;2023-08-24T09:11:40;3.85;;;1.02;;
13419;SDS011;6781;58.440;15.470;2023-08-24T09:14:07;4.10;;;1.50;;
13419;SDS011;6781;58.440;15.470;2023-08-24T09:16:34;2.55;;;1.30;;
13419;SDS011;6781;58.440;15.470;2023-08-24T09:19:02;6.05;;;1.05;;
13419;SDS011;6781;58.440;15.470;2023-08-24T09:21:31;5.82;;;1.40;;
13419;SDS011;6781;58.440;15.470;2023-08-24T09:24:04;2.65;;;1.33;;
13419;SDS011;6781;58.440;15.470;2023-08-24T09:26:32;5.07;;;1.70;;
13419;SDS011;6781;58.440;15.470;2023-08-24T09:29:11;5.22;;;1.40;;
13419;SDS011;6781;58.440;15.470;2023-08-24T09:31:38;5.75;;;1.25;;
13419;SDS011;6781;58.440;15.470;2023-08-24T09:34:06;4.82;;;1.33;;
13419;SDS011;6781;58.440;15.470;2023-08-24T09:36:33;2.85;;;1.23;;
13419;SDS011;6781;58.440;15.470;2023-08-24T09:39:01;4.32;;;1.40;;
13419;SDS011;6781;58.440;15.470;2023-08-24T09:41:38;3.33;;;1.17;;
13419;SDS011;6781;58.440;15.470;2023-08-24T09:44:07;2.97;;;1.00;;
13419;SDS011;6781;58.440;15.470;2023-08-24T09:46:34;4.25;;;1.30;;
13419;SDS011;6781;58.440;15.470;2023-08-24T09:49:03;4.22;;;0.93;;
13419;SDS011;6781;58.440;15.470;2023-08-24T09:51:32;4.00;;;1.10;;
13419;SDS011;6781;58.440;15.470;2023-08-24T09:54:00;3.03;;;1.23;;
13419;SDS011;6781;58.440;15.470;2023-08-24T09:56:31;4.78;;;1.13;;
13419;SDS011;6781;58.440;15.470;2023-08-24T09:59:02;4.82;;;1.10;;
13419;SDS011;6781;58.440;15.470;2023-08-24T10:01:37;1.88;;;1.00;;
13419;SDS011;6781;58.440;15.470;2023-08-24T10:04:07;3.50;;;1.30;;
13419;SDS011;6781;58.440;15.470;2023-08-24T10:06:37;3.78;;;1.30;;
13419;SDS011;6781;58.440;15.470;2023-08-24T10:09:07;2.22;;;1.13;;
13419;SDS011;6781;58.440;15.470;2023-08-24T10:11:36;1.45;;;0.95;;
13419;SDS011;6781;58.440;15.470;2023-08-24T10:14:12;2.17;;;0.90;;
13419;SDS011;6781;58.440;15.470;2023-08-24T10:16:45;3.67;;;1.10;;
13419;SDS011;6781;58.440;15.470;2023-08-24T10:19:13;4.35;;;1.20;;
13419;SDS011;6781;58.440;15.470;2023-08-24T10:21:41;4.15;;;1.17;;
13419;SDS011;6781;58.440;15.470;2023-08-24T10:24:09;3.60;;;1.27;;
13419;SDS011;6781;58.440;15.470;2023-08-24T10:26:37;5.80;;;1.08;;
13419;SDS011;6781;58.440;15.470;2023-08-24T10:29:06;5.50;;;1.25;;
13419;SDS011;6781;58.440;15.470;2023-08-24T10:31:34;3.20;;;1.42;;
13419;SDS011;6781;58.440;15.470;2023-08-24T10:34:04;5.95;;;1.00;;
13419;SDS011;6781;58.440;15.470;2023-08-24T10:36:32;2.30;;;1.00;;
13419;SDS011;6781;58.440;15.470;2023-08-24T10:39:02;3.42;;;1.45;;
13419;SDS011;6781;58.440;15.470;2023-08-24T10:41:43;3.35;;;1.48;;
13419;SDS011;6781;58.440;15.470;2023-08-24T10:44:19;3.95;;;1.05;;
13419;SDS011;6781;58.440;15.470;2023-08-24T10:49:38;3.55;;;1.20;;
13419;SDS011;6781;58.440;15.470;2023-08-24T10:55:00;3.20;;;1.10;;
13419;SDS011;6781;58.440;15.470;2023-08-24T10:57:34;2.47;;;1.33;;
13419;SDS011;6781;58.440;15.470;2023-08-24T11:00:03;4.40;;;1.10;;
13419;SDS011;6781;58.440;15.470;2023-08-24T11:02:43;2.03;;;1.00;;
13419;SDS011;6781;58.440;15.470;2023-08-24T11:05:15;5.10;;;1.10;;
13419;SDS011;6781;58.440;15.470;2023-08-24T11:07:53;2.30;;;1.17;;
13419;SDS011;6781;58.440;15.470;2023-08-24T11:10:21;4.32;;;1.10;;
13419;SDS011;6781;58.440;15.470;2023-08-24T11:15:38;4.15;;;1.00;;
13419;SDS011;6781;58.440;15.470;2023-08-24T11:18:21;3.30;;;1.15;;
13419;SDS011;6781;58.440;15.470;2023-08-24T11:20:51;2.25;;;0.98;;
13419;SDS011;6781;58.440;15.470;2023-08-24T11:23:19;3.50;;;1.25;;
13419;SDS011;6781;58.440;15.470;2023-08-24T11:25:48;2.97;;;1.00;;
13419;SDS011;6781;58.440;15.470;2023-08-24T11:28:21;2.88;;;1.10;;
13419;SDS011;6781;58.440;15.470;2023-08-24T11:30:49;2.55;;;1.08;;
13419;SDS011;6781;58.440;15.470;2023-08-24T11:33:17;2.47;;;1.05;;
13419;SDS011;6781;58.440;15.470;2023-08-24T11:35:55;2.63;;;1.30;;
13419;SDS011;6781;58.440;15.470;2023-08-24T11:38:22;2.50;;;1.20;;
13419;SDS011;6781;58.440;15.470;2023-08-24T11:40:50;4.03;;;1.20;;
13419;SDS011;6781;58.440;15.470;2023-08-24T11:43:21;4.10;;;1.52;;
13419;SDS011;6781;58.440;15.470;2023-08-24T11:45:51;3.63;;;1.30;;
13419;SDS011;6781;58.440;15.470;2023-08-24T11:48:18;3.03;;;1.23;;
13419;SDS011;6781;58.440;15.470;2023-08-24T11:50:47;3.78;;;1.13;;
13419;SDS011;6781;58.440;15.470;2023-08-24T11:53:15;2.88;;;1.13;;
13419;SDS011;6781;58.440;15.470;2023-08-24T11:55:43;2.65;;;1.27;;
13419;SDS011;6781;58.440;15.470;2023-08-24T11:58:13;2.78;;;1.00;;
13419;SDS011;6781;58.440;15.470;2023-08-24T12:00:41;3.70;;;1.20;;
13419;SDS011;6781;58.440;15.470;2023-08-24T12:03:10;2.92;;;1.10;;
13419;SDS011;6781;58.440;15.470;2023-08-24T12:05:37;2.05;;;1.08;;
13419;SDS011;6781;58.440;15.470;2023-08-24T12:08:06;2.42;;;1.05;;
13419;SDS011;6781;58.440;15.470;2023-08-24T12:10:33;3.30;;;1.20;;
13419;SDS011;6781;58.440;15.470;2023-08-24T12:13:02;5.20;;;1.15;;
13419;SDS011;6781;58.440;15.470;2023-08-24T12:15:30;2.45;;;1.17;;
13419;SDS011;6781;58.440;15.470;2023-08-24T12:18:06;5.13;;;1.20;;
13419;SDS011;6781;58.440;15.470;2023-08-24T12:20:33;3.47;;;1.10;;
13419;SDS011;6781;58.440;15.470;2023-08-24T12:23:00;3.15;;;1.10;;
13419;SDS011;6781;58.440;15.470;2023-08-24T12:25:29;3.22;;;0.98;;
13419;SDS011;6781;58.440;15.470;2023-08-24T12:28:08;1.50;;;0.93;;
13419;SDS011;6781;58.440;15.470;2023-08-24T12:30:45;2.05;;;1.00;;
13419;SDS011;6781;58.440;15.470;2023-08-24T12:33:23;1.27;;;0.90;;
13419;SDS011;6781;58.440;15.470;2023-08-24T12:35:51;2.97;;;1.30;;
13419;SDS011;6781;58.440;15.470;2023-08-24T12:38:18;4.10;;;1.30;;
13419;SDS011;6781;58.440;15.470;2023-08-24T12:40:47;3.08;;;1.17;;
13419;SDS011;6781;58.440;15.470;2023-08-24T12:43:15;3.30;;;1.30;;
13419;SDS011;6781;58.440;15.470;2023-08-24T12:45:42;6.40;;;1.15;;
13419;SDS011;6781;58.440;15.470;2023-08-24T12:48:09;3.63;;;1.27;;
13419;SDS011;6781;58.440;15.470;2023-08-24T12:50:37;1.63;;;1.00;;
13419;SDS011;6781;58.440;15.470;2023-08-24T12:53:05;2.60;;;0.95;;
13419;SDS011;6781;58.440;15.470;2023-08-24T12:55:32;2.08;;;0.95;;
13419;SDS011;6781;58.440;15.470;2023-08-24T12:58:01;2.05;;;1.13;;
13419;SDS011;6781;58.440;15.470;2023-08-24T13:00:29;3.42;;;1.02;;
13419;SDS011;6781;58.440;15.470;2023-08-24T13:02:56;7.38;;;1.27;;
13419;SDS011;6781;58.440;15.470;2023-08-24T13:05:24;3.95;;;1.30;;
13419;SDS011;6781;58.440;15.470;2023-08-24T13:07:51;2.80;;;1.30;;
13419;SDS011;6781;58.440;15.470;2023-08-24T13:10:18;2.55;;;1.10;;
13419;SDS011;6781;58.440;15.470;2023-08-24T13:12:45;3.00;;;0.90;;
13419;SDS011;6781;58.440;15.470;2023-08-24T13:15:13;5.50;;;1.02;;
13419;SDS011;6781;58.440;15.470;2023-08-24T13:17:41;4.57;;;1.40;;
13419;SDS011;6781;58.440;15.470;2023-08-24T13:20:12;4.97;;;1.48;;
13419;SDS011;6781;58.440;15.470;2023-08-24T13:22:47;4.55;;;1.33;;
13419;SDS011;6781;58.440;15.470;2023-08-24T13:25:14;4.05;;;1.50;;
13419;SDS011;6781;58.440;15.470;2023-08-24T13:27:41;3.47;;;1.42;;
13419;SDS011;6781;58.440;15.470;2023-08-24T13:30:08;2.75;;;1.00;;
13419;SDS011;6781;58.440;15.470;2023-08-24T13:32:37;7.28;;;1.13;;
13419;SDS011;6781;58.440;15.470;2023-08-24T13:35:05;2.00;;;1.10;;
13419;SDS011;6781;58.440;15.470;2023-08-24T13:37:36;3.08;;;1.10;;
13419;SDS011;6781;58.440;15.470;2023-08-24T13:40:03;3.88;;;1.15;;
13419;SDS011;6781;58.440;15.470;2023-08-24T13:42:32;4.90;;;1.20;;
13419;SDS011;6781;58.440;15.470;2023-08-24T13:45:00;2.08;;;0.90;;
13419;SDS011;6781;58.440;15.470;2023-08-24T13:47:28;3.65;;;1.50;;
13419;SDS011;6781;58.440;15.470;2023-08-24T13:49:57;2.55;;;1.05;;
13419;SDS011;6781;58.440;15.470;2023-08-24T13:52:24;3.05;;;1.27;;
13419;SDS011;6781;58.440;15.470;2023-08-24T13:54:51;2.92;;;1.08;;
13419;SDS011;6781;58.440;15.470;2023-08-24T13:57:18;4.13;;;1.45;;
13419;SDS011;6781;58.440;15.470;2023-08-24T13:59:45;3.75;;;1.30;;
13419;SDS011;6781;58.440;15.470;2023-08-24T14:02:13;4.00;;;1.30;;
13419;SDS011;6781;58.440;15.470;2023-08-24T14:04:41;3.20;;;1.15;;
13419;SDS011;6781;58.440;15.470;2023-08-24T14:07:10;3.33;;;1.20;;
13419;SDS011;6781;58.440;15.470;2023-08-24T14:09:37;4.38;;;1.40;;
13419;SDS011;6781;58.440;15.470;2023-08-24T14:12:04;2.83;;;1.27;;
13419;SDS011;6781;58.440;15.470;2023-08-24T14:14:32;3.70;;;1.23;;
13419;SDS011;6781;58.440;15.470;2023-08-24T14:16:59;3.65;;;1.10;;
13419;SDS011;6781;58.440;15.470;2023-08-24T14:19:26;5.60;;;1.60;;
13419;SDS011;6781;58.440;15.470;2023-08-24T14:21:53;5.30;;;1.10;;
13419;SDS011;6781;58.440;15.470;2023-08-24T14:27:10;2.78;;;1.17;;
13419;SDS011;6781;58.440;15.470;2023-08-24T14:29:37;3.67;;;1.50;;
13419;SDS011;6781;58.440;15.470;2023-08-24T14:32:04;3.17;;;1.30;;
13419;SDS011;6781;58.440;15.470;2023-08-24T14:34:31;2.47;;;1.13;;
13419;SDS011;6781;58.440;15.470;2023-08-24T14:37:37;3.65;;;1.20;;
13419;SDS011;6781;58.440;15.470;2023-08-24T14:39:54;3.67;;;1.30;;
13419;SDS011;6781;58.440;15.470;2023-08-24T14:42:21;2.92;;;1.17;;
13419;SDS011;6781;58.440;15.470;2023-08-24T14:45:02;3.20;;;1.30;;
13419;SDS011;6781;58.440;15.470;2023-08-24T14:47:29;4.43;;;1.30;;
13419;SDS011;6781;58.440;15.470;2023-08-24T14:49:56;3.30;;;1.30;;
13419;SDS011;6781;58.440;15.470;2023-08-24T14:52:24;2.60;;;1.00;;
13419;SDS011;6781;58.440;15.470;2023-08-24T14:54:51;4.70;;;1.10;;
13419;SDS011;6781;58.440;15.470;2023-08-24T14:57:19;5.22;;;1.50;;
13419;SDS011;6781;58.440;15.470;2023-08-24T14:59:46;5.70;;;1.42;;
13419;SDS011;6781;58.440;15.470;2023-08-24T15:02:15;3.47;;;1.17;;
13419;SDS011;6781;58.440;15.470;2023-08-24T15:04:42;2.50;;;1.10;;
13419;SDS011;6781;58.440;15.470;2023-08-24T15:07:09;3.83;;;1.27;;
13419;SDS011;6781;58.440;15.470;2023-08-24T15:09:36;2.92;;;1.35;;